Time;durP1;ratioP1;P1;durP2;ratioP2;P2;SDS_P1;SDS_P2;PMS_P1;PMS_P2;Temp;Humidity;BMP_temperature;BMP_pressure;BME280_temperature;BME280_humidity;BME280_pressure;Samples;Min_cycle;Max_cycle;Signal;HPM_P1;HPM_P2
2022/05/08 00:02:09;;;;;;;17.70;3.63;;;6.00;99.90;;;;;;5126568;27;20058;-65
2022/05/08 00:04:35;;;;;;;14.45;4.03;;;5.90;99.90;;;;;;5120384;28;20122;-65
2022/05/08 00:07:01;;;;;;;18.42;3.88;;;5.90;99.90;;;;;;5115833;28;20123;-65
2022/05/08 00:09:26;;;;;;;18.98;4.00;;;5.90;99.90;;;;;;5116951;28;20054;-65
2022/05/08 00:11:52;;;;;;;19.83;3.88;;;5.90;99.90;;;;;;5126938;27;20046;-65
2022/05/08 00:14:18;;;;;;;19.92;5.05;;;5.80;99.90;;;;;;5120052;28;20035;-65
2022/05/08 00:16:44;;;;;;;17.00;3.53;;;5.80;99.90;;;;;;5126821;28;20054;-65
2022/05/08 00:19:10;;;;;;;20.20;3.92;;;5.70;99.90;;;;;;5121452;28;20391;-65
2022/05/08 00:21:35;;;;;;;18.38;3.65;;;5.70;99.90;;;;;;5113831;28;20040;-65
2022/05/08 00:24:01;;;;;;;17.63;3.60;;;5.70;99.90;;;;;;5122371;27;20038;-65
2022/05/08 00:26:27;;;;;;;18.85;3.83;;;5.60;99.90;;;;;;5124156;27;20046;-65
2022/05/08 00:28:53;;;;;;;16.30;3.35;;;5.30;99.90;;;;;;5121017;28;20046;-65
2022/05/08 00:31:18;;;;;;;18.85;3.85;;;5.60;99.90;;;;;;5121238;27;20505;-65
2022/05/08 00:33:44;;;;;;;17.60;4.03;;;5.60;99.90;;;;;;5132749;27;20031;-65
2022/05/08 00:36:10;;;;;;;18.55;3.40;;;5.50;99.90;;;;;;5121458;28;20031;-65
2022/05/08 00:38:36;;;;;;;14.02;3.38;;;5.50;99.90;;;;;;5109946;28;20423;-65
2022/05/08 00:41:02;;;;;;;13.73;3.38;;;5.50;99.90;;;;;;5100700;28;20052;-65
2022/05/08 00:43:34;;;;;;;17.85;3.95;;;5.40;99.90;;;;;;5111274;28;20082;-65
2022/05/08 00:46:02;;;;;;;22.58;3.80;;;5.40;99.90;;;;;;5123416;28;20039;-65
2022/05/08 00:48:29;;;;;;;19.48;4.57;;;5.30;99.90;;;;;;5113265;28;20050;-65
2022/05/08 00:50:54;;;;;;;21.67;4.07;;;5.30;99.90;;;;;;5112867;28;20044;-65
2022/05/08 00:53:22;;;;;;;17.35;3.70;;;5.30;99.90;;;;;;5109269;28;20119;-65
2022/05/08 00:55:48;;;;;;;18.45;3.65;;;5.20;99.90;;;;;;5120367;27;20055;-65
2022/05/08 00:58:18;;;;;;;14.05;3.88;;;5.20;99.90;;;;;;5117464;27;20059;-65
2022/05/08 01:00:44;;;;;;;18.35;3.85;;;5.20;99.90;;;;;;5122541;27;20074;-65
2022/05/08 01:03:11;;;;;;;18.98;4.55;;;5.20;99.90;;;;;;5105119;27;20460;-65
2022/05/08 01:05:41;;;;;;;16.88;4.30;;;5.10;99.90;;;;;;5112225;27;20112;-65
2022/05/08 01:08:08;;;;;;;17.42;3.72;;;5.10;99.90;;;;;;5116945;27;20048;-64
2022/05/08 01:10:36;;;;;;;18.25;3.80;;;5.10;99.90;;;;;;5095135;28;20043;-65
2022/05/08 01:13:01;;;;;;;17.17;4.20;;;5.10;99.90;;;;;;5109991;28;20529;-65
2022/05/08 01:15:28;;;;;;;12.95;3.70;;;5.10;99.90;;;;;;5121935;27;20129;-65
2022/05/08 01:17:57;;;;;;;17.25;4.07;;;5.10;99.90;;;;;;5112006;27;20184;-65
2022/05/08 01:20:23;;;;;;;18.63;4.70;;;5.00;99.90;;;;;;5127430;27;20162;-65
2022/05/08 01:22:49;;;;;;;17.80;3.83;;;5.00;99.90;;;;;;5125013;27;20495;-65
2022/05/08 01:25:14;;;;;;;22.92;4.30;;;5.00;99.90;;;;;;5125436;27;20051;-65
2022/05/08 01:27:40;;;;;;;15.45;3.70;;;4.90;99.90;;;;;;5111330;27;20047;-65
2022/05/08 01:30:06;;;;;;;17.00;3.30;;;4.90;99.90;;;;;;5130541;27;20154;-65
2022/05/08 01:32:32;;;;;;;16.98;3.60;;;4.90;99.90;;;;;;5127595;27;20134;-65
2022/05/08 01:34:57;;;;;;;15.35;3.80;;;4.90;99.90;;;;;;5116482;27;20551;-65
2022/05/08 01:37:23;;;;;;;11.70;3.70;;;4.80;99.90;;;;;;5111188;27;20035;-65
2022/05/08 01:39:49;;;;;;;17.90;4.03;;;4.80;99.90;;;;;;5128375;27;20054;-66
2022/05/08 01:42:15;;;;;;;14.68;3.78;;;4.80;99.90;;;;;;5131537;27;20404;-65
2022/05/08 01:44:42;;;;;;;18.10;4.05;;;4.80;99.90;;;;;;5115037;27;20047;-65
2022/05/08 01:49:52;;;;;;;15.38;3.63;;;4.70;99.90;;;;;;5116140;27;20107;-65
2022/05/08 01:52:17;;;;;;;14.50;4.25;;;4.80;99.90;;;;;;5113340;27;20036;-65
2022/05/08 01:54:43;;;;;;;14.88;3.95;;;4.70;99.90;;;;;;5111638;27;20039;-65
2022/05/08 01:57:09;;;;;;;17.23;4.13;;;4.70;99.90;;;;;;5130727;27;20385;-65
2022/05/08 01:59:34;;;;;;;16.85;4.28;;;4.60;99.90;;;;;;5121508;27;20058;-64
2022/05/08 02:02:00;;;;;;;20.85;4.20;;;4.60;99.90;;;;;;5087922;28;20047;-65
2022/05/08 02:04:26;;;;;;;13.93;4.03;;;4.60;99.90;;;;;;5115982;27;20494;-65
2022/05/08 02:06:52;;;;;;;19.35;5.03;;;4.60;99.90;;;;;;5118507;27;20403;-65
2022/05/08 02:09:18;;;;;;;15.35;4.18;;;4.50;99.90;;;;;;5119211;27;20154;-65
2022/05/08 02:11:44;;;;;;;17.98;3.90;;;4.50;99.90;;;;;;5127511;27;20463;-65
2022/05/08 02:14:09;;;;;;;15.07;4.00;;;4.50;99.90;;;;;;5116585;27;20155;-65
2022/05/08 02:16:35;;;;;;;14.88;3.40;;;4.40;99.90;;;;;;5120598;27;20088;-65
2022/05/08 02:19:00;;;;;;;13.18;3.70;;;4.40;99.90;;;;;;5122247;27;20060;-65
2022/05/08 02:21:26;;;;;;;15.80;4.40;;;4.40;99.90;;;;;;5121279;27;20465;-65
2022/05/08 02:23:52;;;;;;;15.95;3.83;;;4.40;99.90;;;;;;5119696;27;20491;-65
2022/05/08 02:26:17;;;;;;;17.65;4.38;;;4.30;99.90;;;;;;5116649;27;20048;-65
2022/05/08 02:28:43;;;;;;;19.15;4.10;;;4.30;99.90;;;;;;5106597;27;20162;-65
2022/05/08 02:31:09;;;;;;;17.27;4.45;;;4.50;99.90;;;;;;5127710;27;20042;-65
2022/05/08 02:33:34;;;;;;;11.55;3.50;;;4.20;99.90;;;;;;5130666;27;20041;-64
2022/05/08 02:36:00;;;;;;;18.90;3.75;;;4.20;99.90;;;;;;5128834;27;20437;-65
2022/05/08 02:38:25;;;;;;;15.13;3.88;;;4.20;99.90;;;;;;5115105;27;20504;-64
2022/05/08 02:40:52;;;;;;;12.57;3.95;;;4.20;99.90;;;;;;5115167;27;20043;-65
2022/05/08 02:43:20;;;;;;;11.73;3.75;;;4.10;99.90;;;;;;5129157;27;20043;-65
2022/05/08 02:45:49;;;;;;;14.40;3.72;;;4.10;99.90;;;;;;5115279;27;20038;-65
2022/05/08 02:48:15;;;;;;;16.58;3.83;;;4.10;99.90;;;;;;5117813;27;20038;-65
2022/05/08 02:50:41;;;;;;;17.90;4.07;;;4.10;99.90;;;;;;5120220;27;20043;-65
2022/05/08 02:53:06;;;;;;;16.70;3.90;;;4.10;99.90;;;;;;5110466;28;20381;-64
2022/05/08 02:58:34;;;;;;;11.93;3.38;;;4.10;99.90;;;;;;5121842;27;20399;-65
2022/05/08 03:01:07;;;;;;;17.27;3.83;;;4.00;99.90;;;;;;5126009;27;20392;-65
2022/05/08 03:03:34;;;;;;;13.55;4.07;;;4.00;99.90;;;;;;5130453;27;20047;-64
2022/05/08 03:06:00;;;;;;;15.05;4.28;;;4.00;99.90;;;;;;5118045;27;20110;-65
2022/05/08 03:08:25;;;;;;;18.42;4.60;;;3.90;99.90;;;;;;5120168;27;20551;-65
2022/05/08 03:13:37;;;;;;;14.60;4.32;;;3.90;99.90;;;;;;5120788;27;20095;-64
2022/05/08 03:16:03;;;;;;;18.38;4.35;;;3.80;99.90;;;;;;5112918;27;20055;-64
2022/05/08 03:18:29;;;;;;;11.43;4.00;;;3.80;99.90;;;;;;5116243;27;20042;-65
2022/05/08 03:20:55;;;;;;;12.52;3.92;;;3.70;99.90;;;;;;5114194;27;20403;-65
2022/05/08 03:23:22;;;;;;;12.45;3.65;;;3.70;99.90;;;;;;5107915;27;20051;-65
2022/05/08 03:25:48;;;;;;;15.07;3.88;;;3.70;99.90;;;;;;5126811;27;20058;-64
2022/05/08 03:28:18;;;;;;;14.70;4.70;;;3.70;99.90;;;;;;5121335;27;20051;-64
2022/05/08 03:30:44;;;;;;;11.93;3.58;;;3.70;99.90;;;;;;5123138;27;20376;-65
2022/05/08 03:33:10;;;;;;;12.27;3.92;;;3.70;99.90;;;;;;5109792;27;20039;-64
2022/05/08 03:35:37;;;;;;;18.45;4.10;;;3.70;99.90;;;;;;5114912;27;20036;-65
2022/05/08 03:38:03;;;;;;;13.13;3.78;;;3.70;99.90;;;;;;5109960;28;20074;-64
2022/05/08 03:40:34;;;;;;;17.83;4.80;;;4.20;99.90;;;;;;5116425;27;20058;-64
2022/05/08 03:43:01;;;;;;;13.52;4.40;;;3.60;99.90;;;;;;5121197;27;20380;-65
2022/05/08 03:45:28;;;;;;;14.05;3.63;;;3.60;99.90;;;;;;5129788;27;20400;-64
2022/05/08 03:47:54;;;;;;;13.88;3.80;;;3.60;99.90;;;;;;5119805;27;20032;-65
2022/05/08 03:50:21;;;;;;;12.05;3.95;;;3.60;99.90;;;;;;5115430;27;20488;-64
2022/05/08 03:52:47;;;;;;;15.48;4.18;;;3.60;99.90;;;;;;5112214;27;20093;-64
2022/05/08 03:55:17;;;;;;;14.73;3.90;;;3.60;99.90;;;;;;5107071;28;20442;-64
2022/05/08 03:57:44;;;;;;;12.70;3.67;;;3.60;99.90;;;;;;5110470;28;20085;-65
2022/05/08 04:00:11;;;;;;;11.63;3.97;;;3.70;99.90;;;;;;5108672;28;20097;-64
2022/05/08 04:02:36;;;;;;;14.43;3.90;;;3.60;99.90;;;;;;5125024;27;20046;-64
2022/05/08 04:05:03;;;;;;;10.65;3.78;;;3.60;99.90;;;;;;5113285;28;20496;-64
2022/05/08 04:07:30;;;;;;;13.25;3.65;;;3.70;99.90;;;;;;5109533;28;20076;-65
2022/05/08 04:09:55;;;;;;;13.63;4.28;;;3.60;99.90;;;;;;5107331;27;20103;-65
2022/05/08 04:12:21;;;;;;;14.20;4.07;;;3.60;99.90;;;;;;5107272;28;20043;-64
2022/05/08 04:14:47;;;;;;;13.98;3.60;;;3.70;99.90;;;;;;5111872;28;20051;-64
2022/05/08 04:17:13;;;;;;;12.73;3.47;;;3.70;99.90;;;;;;5125726;28;20035;-64
2022/05/08 04:19:38;;;;;;;15.65;3.72;;;3.80;99.90;;;;;;5119852;28;20035;-65
2022/05/08 04:24:49;;;;;;;15.23;3.70;;;3.90;99.90;;;;;;5110958;28;20158;-64
2022/05/08 04:27:15;;;;;;;12.75;3.90;;;3.90;99.90;;;;;;5115051;27;20169;-64
2022/05/08 04:29:40;;;;;;;10.73;3.60;;;4.00;99.90;;;;;;5127227;28;20491;-64
2022/05/08 04:32:06;;;;;;;13.45;3.70;;;4.10;99.90;;;;;;5128579;27;20050;-64
2022/05/08 04:34:32;;;;;;;13.02;3.90;;;4.10;99.90;;;;;;5117376;27;20063;-65
2022/05/08 04:36:58;;;;;;;13.40;4.15;;;4.30;99.90;;;;;;5116107;27;20067;-65
2022/05/08 04:39:24;;;;;;;16.00;4.10;;;5.20;99.90;;;;;;5098845;28;20039;-65
2022/05/08 04:41:50;;;;;;;15.25;3.63;;;5.60;99.90;;;;;;5116607;27;20050;-64
2022/05/08 04:44:15;;;;;;;11.40;3.40;;;6.50;99.90;;;;;;5123824;27;20066;-65
2022/05/08 04:46:41;;;;;;;9.25;3.33;;;6.90;99.90;;;;;;5131096;27;20047;-65
2022/05/08 04:49:07;;;;;;;17.50;3.47;;;7.40;99.90;;;;;;5130081;27;20039;-64
2022/05/08 04:51:32;;;;;;;10.35;3.17;;;7.70;99.90;;;;;;5131567;27;20043;-64
2022/05/08 04:53:58;;;;;;;13.35;3.33;;;7.90;99.90;;;;;;5130629;27;20069;-65
2022/05/08 04:56:24;;;;;;;8.95;2.90;;;7.70;99.90;;;;;;5124539;27;20053;-65
2022/05/08 04:58:50;;;;;;;12.75;3.13;;;7.80;99.90;;;;;;5123657;27;20039;-65
2022/05/08 05:01:15;;;;;;;17.08;3.10;;;8.20;99.90;;;;;;5121182;27;20046;-65
2022/05/08 05:03:41;;;;;;;12.52;3.13;;;9.00;99.90;;;;;;5128495;27;20441;-65
2022/05/08 05:06:07;;;;;;;9.60;3.03;;;9.10;99.90;;;;;;5127520;27;20032;-65
2022/05/08 05:08:33;;;;;;;15.25;2.88;;;9.10;99.90;;;;;;5118197;27;20715;-65
2022/05/08 05:10:59;;;;;;;12.85;2.95;;;9.60;99.90;;;;;;5114240;27;20104;-64
2022/05/08 05:13:25;;;;;;;10.82;2.90;;;9.90;99.90;;;;;;5125607;27;20043;-64
2022/05/08 05:15:52;;;;;;;11.00;2.95;;;10.50;99.90;;;;;;5126467;27;20522;-64
2022/05/08 05:18:17;;;;;;;11.70;3.08;;;10.40;99.90;;;;;;5130945;27;20039;-64
2022/05/08 05:20:45;;;;;;;14.75;3.10;;;11.10;99.90;;;;;;5120356;27;20040;-64
2022/05/08 05:23:11;;;;;;;11.77;3.00;;;11.00;99.90;;;;;;5122344;27;20086;-64
2022/05/08 05:25:37;;;;;;;11.10;2.85;;;10.80;99.90;;;;;;5121300;27;20074;-64
2022/05/08 05:28:03;;;;;;;17.25;2.92;;;10.50;99.90;;;;;;5115028;27;20084;-64
2022/05/08 05:30:29;;;;;;;10.70;3.00;;;10.20;99.90;;;;;;5123041;27;20635;-64
2022/05/08 05:32:54;;;;;;;9.85;2.80;;;10.30;99.90;;;;;;5123693;27;20078;-64
2022/05/08 05:35:20;;;;;;;9.23;2.55;;;10.30;99.90;;;;;;5111685;27;20100;-64
2022/05/08 05:37:46;;;;;;;12.75;2.88;;;10.50;99.90;;;;;;5116523;27;20841;-64
2022/05/08 05:40:11;;;;;;;10.57;2.25;;;10.60;99.90;;;;;;5117127;27;20047;-66
2022/05/08 05:42:37;;;;;;;10.88;2.55;;;10.50;99.90;;;;;;5118897;27;20043;-64
2022/05/08 05:45:03;;;;;;;9.40;2.35;;;10.40;99.90;;;;;;5118681;27;20123;-64
2022/05/08 05:50:14;;;;;;;9.63;2.17;;;10.10;99.90;;;;;;5120887;27;20047;-64
2022/05/08 05:52:40;;;;;;;13.40;2.58;;;9.90;99.90;;;;;;5122033;27;20047;-64
2022/05/08 05:55:06;;;;;;;11.82;2.38;;;9.80;99.90;;;;;;5117357;27;20118;-64
2022/05/08 05:57:36;;;;;;;18.73;2.90;;;9.70;99.90;;;;;;5115121;27;20043;-64
2022/05/08 06:00:04;;;;;;;10.57;2.78;;;9.70;99.90;;;;;;5099594;28;20065;-64
2022/05/08 06:02:29;;;;;;;15.93;2.30;;;9.50;99.90;;;;;;5114073;27;20050;-66
2022/05/08 06:04:55;;;;;;;14.82;2.63;;;9.50;99.90;;;;;;5118102;27;20040;-64
2022/05/08 06:07:21;;;;;;;13.60;2.28;;;9.40;99.90;;;;;;5124090;27;20118;-64
2022/05/08 06:09:46;;;;;;;9.40;2.50;;;9.40;99.90;;;;;;5116272;27;20391;-65
2022/05/08 06:12:12;;;;;;;16.80;3.28;;;9.40;99.90;;;;;;5121917;27;20119;-64
2022/05/08 06:14:38;;;;;;;10.27;2.20;;;9.40;99.90;;;;;;5101183;27;20055;-64
2022/05/08 06:17:04;;;;;;;15.82;2.00;;;9.50;99.90;;;;;;5121324;27;20039;-64
2022/05/08 06:19:31;;;;;;;12.30;2.10;;;9.60;99.90;;;;;;5114548;27;20522;-65
2022/05/08 06:21:57;;;;;;;11.93;2.45;;;9.70;99.90;;;;;;5118523;27;20453;-65
2022/05/08 06:24:23;;;;;;;14.85;3.03;;;9.80;99.90;;;;;;5113512;27;20387;-64
2022/05/08 06:26:48;;;;;;;7.72;2.22;;;10.10;99.90;;;;;;5110394;27;20051;-65
2022/05/08 06:29:14;;;;;;;12.30;2.20;;;10.30;99.90;;;;;;5112159;27;20047;-64
2022/05/08 06:31:40;;;;;;;12.02;2.15;;;10.50;99.90;;;;;;5111719;27;20044;-65
2022/05/08 06:34:06;;;;;;;13.02;2.47;;;11.20;99.90;;;;;;5114267;27;20578;-64
2022/05/08 06:36:32;;;;;;;12.05;2.08;;;11.20;99.90;;;;;;5114016;27;20046;-65
2022/05/08 06:38:59;;;;;;;7.75;1.80;;;11.10;99.90;;;;;;5117530;27;20035;-64
2022/05/08 06:41:25;;;;;;;12.05;2.05;;;11.10;99.90;;;;;;5105369;27;20039;-65
2022/05/08 06:43:50;;;;;;;13.30;1.70;;;11.00;99.90;;;;;;5113703;27;20035;-64
2022/05/08 06:46:16;;;;;;;13.98;2.50;;;11.10;99.90;;;;;;5116004;27;20143;-65
2022/05/08 06:48:42;;;;;;;16.40;2.35;;;10.90;99.90;;;;;;5115426;27;20657;-65
2022/05/08 06:51:07;;;;;;;14.85;2.20;;;10.90;99.90;;;;;;5105338;27;20487;-65
2022/05/08 06:53:33;;;;;;;13.57;1.80;;;10.90;99.90;;;;;;5113578;27;20047;-65
2022/05/08 06:55:59;;;;;;;12.13;1.83;;;11.00;99.90;;;;;;5090651;28;20048;-65
2022/05/08 06:58:25;;;;;;;15.57;2.70;;;11.10;99.90;;;;;;5099223;28;20055;-65
2022/05/08 07:03:36;;;;;;;11.75;1.80;;;11.30;99.90;;;;;;5092970;28;20048;-65
2022/05/08 07:06:02;;;;;;;9.40;1.55;;;11.40;99.90;;;;;;5091352;28;20039;-65
2022/05/08 07:08:29;;;;;;;10.77;1.45;;;11.50;99.90;;;;;;5095625;28;20715;-65
2022/05/08 07:10:54;;;;;;;11.15;1.60;;;11.60;99.90;;;;;;5085307;28;20423;-65
2022/05/08 07:13:25;;;;;;;10.85;2.10;;;11.80;99.90;;;;;;5090389;28;20047;-65
2022/05/08 07:15:51;;;;;;;11.82;1.38;;;11.90;99.90;;;;;;5080988;28;20047;-65
2022/05/08 07:18:18;;;;;;;9.65;1.73;;;12.10;99.90;;;;;;5066344;28;20177;-66
2022/05/08 07:20:44;;;;;;;10.10;1.85;;;12.20;99.90;;;;;;5081403;28;20746;-65
2022/05/08 07:23:09;;;;;;;14.30;2.00;;;12.30;99.90;;;;;;5076363;28;20100;-65
2022/05/08 07:25:35;;;;;;;16.65;2.10;;;12.60;99.90;;;;;;5081493;28;20111;-66
2022/05/08 07:28:00;;;;;;;13.05;1.80;;;12.90;99.90;;;;;;5085745;28;20040;-65
2022/05/08 07:30:26;;;;;;;15.00;3.38;;;13.20;99.90;;;;;;5081659;28;20453;-65
2022/05/08 07:32:52;;;;;;;8.88;1.60;;;13.50;99.90;;;;;;5086157;28;20036;-65
2022/05/08 07:38:03;;;;;;;10.80;2.13;;;14.10;99.90;;;;;;5084367;28;20490;-65
2022/05/08 07:40:29;;;;;;;9.68;1.52;;;14.20;99.90;;;;;;5084344;28;20636;-65
2022/05/08 07:42:55;;;;;;;8.32;1.75;;;14.90;99.90;;;;;;5084956;28;20036;-65
2022/05/08 07:45:21;;;;;;;13.25;1.80;;;15.10;99.90;;;;;;5088312;28;20104;-65
2022/05/08 07:47:47;;;;;;;12.80;1.60;;;14.70;99.90;;;;;;5075842;28;20051;-66
2022/05/08 07:50:12;;;;;;;12.02;3.03;;;14.40;99.90;;;;;;5064855;28;20043;-65
2022/05/08 07:52:39;;;;;;;13.02;2.08;;;14.20;99.90;;;;;;5081690;28;20035;-67
2022/05/08 07:55:07;;;;;;;9.60;1.90;;;14.30;99.90;;;;;;5084754;28;20054;-65
2022/05/08 07:57:33;;;;;;;12.75;2.10;;;14.30;99.90;;;;;;5100061;27;20159;-65
2022/05/08 07:59:59;;;;;;;16.75;2.60;;;14.20;99.90;;;;;;5107206;28;20541;-65
2022/05/08 08:02:25;;;;;;;10.60;1.75;;;14.30;99.90;;;;;;5110265;28;20047;-65
2022/05/08 08:04:52;;;;;;;12.60;2.15;;;14.80;99.90;;;;;;5115210;28;20042;-65
2022/05/08 08:07:17;;;;;;;10.20;2.30;;;14.70;99.90;;;;;;5113350;27;20047;-65
2022/05/08 08:09:43;;;;;;;9.77;2.05;;;14.70;99.90;;;;;;5076458;27;20397;-65
2022/05/08 08:12:09;;;;;;;15.32;1.95;;;14.70;99.90;;;;;;5115016;27;20070;-66
2022/05/08 08:14:35;;;;;;;10.93;2.25;;;14.80;99.90;;;;;;5113949;27;20036;-65
2022/05/08 08:17:00;;;;;;;11.05;2.13;;;14.90;99.90;;;;;;5114221;27;20039;-65
2022/05/08 08:19:26;;;;;;;11.77;1.70;;;15.30;99.90;;;;;;5116064;27;20039;-65
2022/05/08 08:21:52;;;;;;;8.38;1.58;;;15.50;99.90;;;;;;5116429;27;20173;-65
2022/05/08 08:24:18;;;;;;;12.45;1.70;;;15.30;99.90;;;;;;5098198;27;20130;-65
2022/05/08 08:26:43;;;;;;;10.10;1.77;;;15.20;99.90;;;;;;5113762;27;20196;-64
2022/05/08 08:29:09;;;;;;;11.88;2.20;;;15.40;99.90;;;;;;5115934;27;20120;-65
2022/05/08 08:31:35;;;;;;;12.63;2.15;;;15.70;99.90;;;;;;5118261;27;20036;-65
2022/05/08 08:34:00;;;;;;;10.60;1.83;;;16.10;99.90;;;;;;5112740;27;20047;-65
2022/05/08 08:36:26;;;;;;;12.93;2.05;;;16.40;99.90;;;;;;5117178;27;20522;-65
2022/05/08 08:38:51;;;;;;;14.90;2.28;;;16.60;99.90;;;;;;5113674;27;20427;-66
2022/05/08 08:41:26;;;;;;;10.32;2.00;;;16.70;99.00;;;;;;5115397;27;20044;-65
2022/05/08 08:49:31;;;;;;;10.45;1.77;;;17.10;99.90;;;;;;5113399;27;20167;-65
2022/05/08 08:51:59;;;;;;;10.45;1.80;;;17.10;97.70;;;;;;5113518;27;20127;-65
2022/05/08 08:54:24;;;;;;;10.45;1.52;;;17.20;97.70;;;;;;5116796;27;20039;-65
2022/05/08 08:56:50;;;;;;;12.00;2.00;;;17.20;99.90;;;;;;5114861;27;20043;-65
2022/05/08 08:59:16;;;;;;;11.00;2.05;;;17.20;94.10;;;;;;5104924;27;20050;-65
2022/05/08 09:01:45;;;;;;;13.75;1.90;;;16.80;96.10;;;;;;5116251;27;20451;-65
2022/05/08 09:04:12;;;;;;;9.40;1.60;;;16.30;94.30;;;;;;5118155;27;20104;-65
2022/05/08 09:06:39;;;;;;;12.77;1.80;;;15.80;95.80;;;;;;5118783;27;20134;-65
2022/05/08 09:09:25;;;;;;;11.02;2.08;;;15.30;96.20;;;;;;5111991;27;20078;-65
2022/05/08 09:11:53;;;;;;;10.10;2.10;;;15.00;96.80;;;;;;5124314;27;20027;-65
2022/05/08 09:14:35;;;;;;;10.13;1.77;;;14.90;98.60;;;;;;5113979;27;20059;-65
2022/05/08 09:17:02;;;;;;;;;;;15.00;97.80;;;;;;5117255;27;20054;-65
2022/05/08 09:19:37;;;;;;;10.10;1.85;;;14.90;98.50;;;;;;5111148;27;19961;-65
2022/05/08 09:22:04;;;;;;;8.52;1.60;;;14.90;98.40;;;;;;5113182;27;20138;-65
2022/05/08 09:24:33;;;;;;;8.25;1.80;;;15.10;96.30;;;;;;5118223;27;20599;-65
2022/05/08 09:27:14;;;;;;;11.35;2.08;;;15.40;97.20;;;;;;5119955;27;20039;-65
2022/05/08 09:29:43;;;;;;;12.05;1.90;;;16.00;99.60;;;;;;5115330;27;20074;-65
2022/05/08 09:32:10;;;;;;;12.05;2.45;;;16.10;95.70;;;;;;5109001;27;20097;-65
2022/05/08 09:34:57;;;;;;;12.15;1.83;;;16.30;95.10;;;;;;5107576;27;20035;-65
2022/05/08 09:37:27;;;;;;;12.10;1.92;;;16.60;97.10;;;;;;5111082;27;20051;-65
2022/05/08 09:40:19;;;;;;;12.63;2.50;;;16.80;95.90;;;;;;5113719;27;20421;-65
2022/05/08 09:42:46;;;;;;;12.05;2.65;;;16.60;95.20;;;;;;5114555;27;20130;-65
2022/05/08 09:45:12;;;;;;;13.05;2.33;;;16.30;95.00;;;;;;5118154;27;20043;-65
2022/05/08 09:47:48;;;;;;;14.55;2.10;;;16.20;96.40;;;;;;5115166;27;20043;-65
2022/05/08 09:50:15;;;;;;;10.93;1.95;;;16.30;97.80;;;;;;5116143;27;20510;-65
2022/05/08 09:52:43;;;;;;;11.05;1.88;;;16.40;94.70;;;;;;5090373;27;20044;-64
2022/05/08 09:55:12;;;;;;;11.52;2.15;;;16.60;95.50;;;;;;5115672;27;20089;-64
2022/05/08 09:57:39;;;;;;;10.60;2.40;;;16.60;94.50;;;;;;5098306;27;20563;-65
2022/05/08 10:00:09;;;;;;;9.38;2.33;;;16.20;92.30;;;;;;5113500;27;20042;-65
2022/05/08 10:02:37;;;;;;;10.23;1.95;;;15.90;94.30;;;;;;5115651;27;20035;-65
2022/05/08 10:05:03;;;;;;;9.48;2.00;;;15.90;95.70;;;;;;5113785;27;20322;-65
2022/05/08 10:07:29;;;;;;;9.82;2.35;;;15.90;94.90;;;;;;5097808;27;20623;-66
2022/05/08 10:15:35;;;;;;;10.32;1.83;;;15.50;93.90;;;;;;5114043;27;20591;-65
2022/05/08 10:18:31;;;;;;;12.63;2.42;;;15.50;94.50;;;;;;5113772;27;20518;-66
2022/05/08 10:21:04;;;;;;;13.57;2.45;;;15.80;96.10;;;;;;5121496;27;20100;-66
2022/05/08 10:23:39;;;;;;;10.63;2.10;;;15.80;92.00;;;;;;5116505;27;20055;-66
2022/05/08 10:26:20;;;;;;;8.45;1.80;;;15.80;92.20;;;;;;5127020;27;20557;-65
2022/05/08 10:29:04;;;;;;;13.82;3.22;;;15.80;93.40;;;;;;5125422;27;20109;-66
2022/05/08 10:31:50;;;;;;;11.15;1.80;;;15.80;91.70;;;;;;5121212;27;20133;-66
2022/05/08 10:34:28;;;;;;;14.52;2.28;;;15.90;91.50;;;;;;5120485;27;20109;-66
2022/05/08 10:37:26;;;;;;;10.05;2.38;;;16.00;93.30;;;;;;5128401;27;20110;-65
2022/05/08 10:39:53;;;;;;;9.52;1.58;;;16.20;94.20;;;;;;5124640;27;20118;-65
2022/05/08 10:42:24;;;;;;;12.65;2.22;;;16.30;95.60;;;;;;5121234;27;20043;-65
2022/05/08 10:44:50;;;;;;;;;;;16.30;92.10;;;;;;5126045;27;20078;-66
2022/05/08 10:47:36;;;;;;;12.57;2.10;;;16.20;93.00;;;;;;5127669;27;19920;-65
2022/05/08 10:50:04;;;;;;;10.43;1.75;;;16.10;93.50;;;;;;5123422;27;20073;-66
2022/05/08 10:52:31;;;;;;;16.65;2.13;;;16.20;94.30;;;;;;5125031;27;20442;-66
2022/05/08 10:54:57;;;;;;;10.43;2.45;;;16.50;94.50;;;;;;5123305;27;20054;-65
2022/05/08 10:57:30;;;;;;;13.25;1.98;;;16.30;90.60;;;;;;5109383;27;20473;-66
2022/05/08 10:59:56;;;;;;;11.95;1.85;;;16.20;92.40;;;;;;5115413;27;20400;-66
2022/05/08 11:02:40;;;;;;;11.48;2.20;;;16.30;92.50;;;;;;5113796;27;20070;-66
2022/05/08 11:05:29;;;;;;;12.52;2.47;;;16.20;91.80;;;;;;5102689;27;20126;-64
2022/05/08 11:08:03;;;;;;;11.95;2.00;;;16.20;92.20;;;;;;5113967;27;20062;-63
2022/05/08 11:10:42;;;;;;;11.95;2.13;;;16.30;93.00;;;;;;5115786;27;20130;-65
2022/05/08 11:13:14;;;;;;;10.80;1.77;;;16.20;91.70;;;;;;5110828;27;20115;-65
2022/05/08 11:15:43;;;;;;;13.88;2.42;;;16.10;90.90;;;;;;5114084;27;20066;-65
2022/05/08 11:18:12;;;;;;;10.38;2.10;;;16.10;92.50;;;;;;5120015;27;20741;-65
2022/05/08 11:21:09;;;;;;;12.13;1.90;;;16.20;94.30;;;;;;5109523;27;20043;-65
2022/05/08 11:23:44;;;;;;;9.27;1.60;;;16.60;92.50;;;;;;5102479;27;20043;-64
2022/05/08 11:26:12;;;;;;;14.98;1.90;;;16.40;92.10;;;;;;5120769;27;20172;-65
2022/05/08 11:28:53;;;;;;;11.82;2.42;;;16.20;84.70;;;;;;5118255;27;20078;-65
2022/05/08 11:31:19;;;;;;;13.52;2.35;;;16.10;90.20;;;;;;5099769;27;20085;-65
2022/05/08 11:36:32;;;;;;;8.15;1.60;;;16.30;90.00;;;;;;5122886;27;20070;-66
2022/05/08 11:39:23;;;;;;;11.55;1.95;;;16.20;84.40;;;;;;5103170;28;20050;-66
2022/05/08 11:41:51;;;;;;;9.88;1.83;;;16.20;87.50;;;;;;5117676;27;20063;-67
2022/05/08 11:44:16;;;;;;;10.90;1.90;;;16.20;86.60;;;;;;5115806;27;20056;-66
2022/05/08 11:46:46;;;;;;;10.50;1.83;;;16.10;90.50;;;;;;5124715;27;20039;-67
2022/05/08 11:49:22;;;;;;;12.88;1.92;;;16.20;90.70;;;;;;5117458;27;20820;-67
2022/05/08 11:51:51;;;;;;;7.38;1.55;;;16.40;90.50;;;;;;5096901;28;20047;-66
2022/05/08 11:54:18;;;;;;;9.43;2.00;;;16.30;86.60;;;;;;5106137;27;20084;-65
2022/05/08 11:56:45;;;;;;;7.43;1.98;;;16.20;86.10;;;;;;5110937;27;20511;-66
2022/05/08 11:59:18;;;;;;;12.00;1.83;;;16.30;88.60;;;;;;5116085;28;20053;-65
2022/05/08 12:01:49;;;;;;;14.02;2.10;;;16.30;86.70;;;;;;5111373;28;20043;-66
2022/05/08 12:04:29;;;;;;;11.82;1.70;;;16.40;87.70;;;;;;5099928;28;20158;-65
2022/05/08 12:07:08;;;;;;;12.10;2.13;;;16.50;89.60;;;;;;5109458;28;20035;-66
2022/05/08 12:09:46;;;;;;;9.23;2.10;;;16.50;84.80;;;;;;5122321;28;20503;-66
2022/05/08 12:12:39;;;;;;;11.73;2.38;;;16.30;85.60;;;;;;5122555;27;20054;-66
2022/05/08 12:15:08;;;;;;;9.90;1.70;;;16.30;88.10;;;;;;5114985;27;20044;-66
2022/05/08 12:17:40;;;;;;;15.35;2.00;;;16.30;86.90;;;;;;5111284;28;20040;-65
2022/05/08 12:20:20;;;;;;;10.40;1.95;;;16.40;87.00;;;;;;5116148;28;20126;-66
2022/05/08 12:23:07;;;;;;;9.83;1.70;;;16.30;84.30;;;;;;5117260;28;20031;-65
2022/05/08 12:25:34;;;;;;;6.68;1.83;;;16.40;83.40;;;;;;5115903;28;20043;-64
2022/05/08 12:28:00;;;;;;;10.85;1.85;;;16.40;86.30;;;;;;5097274;28;20047;-64
2022/05/08 12:30:26;;;;;;;10.98;2.90;;;16.20;83.80;;;;;;5112606;28;20146;-67
2022/05/08 12:32:52;;;;;;;13.48;2.30;;;16.10;83.20;;;;;;5106672;28;20753;-64
2022/05/08 12:35:19;;;;;;;13.02;2.70;;;16.10;84.50;;;;;;5119009;28;20594;-64
2022/05/08 12:37:47;;;;;;;8.52;1.85;;;16.20;86.20;;;;;;5115210;28;20101;-63
2022/05/08 12:40:14;;;;;;;15.80;2.92;;;16.20;85.90;;;;;;5107940;28;20047;-65
2022/05/08 12:42:40;;;;;;;11.90;3.17;;;16.10;84.80;;;;;;5105105;28;20047;-65
2022/05/08 12:45:07;;;;;;;12.93;2.33;;;16.20;89.30;;;;;;5091248;28;20494;-65
2022/05/08 12:47:33;;;;;;;16.45;2.58;;;16.30;84.20;;;;;;5106563;28;20039;-65
2022/05/08 12:49:59;;;;;;;11.32;2.17;;;16.30;84.50;;;;;;5105162;28;20185;-65
2022/05/08 12:52:24;;;;;;;11.73;2.03;;;16.20;86.60;;;;;;5112691;27;20114;-65
2022/05/08 12:54:50;;;;;;;7.88;1.65;;;16.30;87.00;;;;;;5117028;27;20050;-65
2022/05/08 12:59:42;;;;;;;6.13;1.75;;;16.00;80.00;;;;;;5113300;27;20697;-65
2022/05/08 13:00:04;;;;;;;8.65;2.00;;;16.00;82.20;;;;;;5116860;27;20050;-63
2022/05/08 13:02:30;;;;;;;12.98;2.00;;;15.90;85.10;;;;;;5115564;27;20047;-63
2022/05/08 13:04:56;;;;;;;9.07;1.65;;;16.00;81.50;;;;;;5126254;27;20070;-63
2022/05/08 13:07:21;;;;;;;14.55;2.95;;;15.90;84.20;;;;;;5122702;27;20047;-63
2022/05/08 13:09:47;;;;;;;11.55;2.15;;;15.80;86.50;;;;;;5114063;27;20024;-63
2022/05/08 13:12:13;;;;;;;14.80;2.40;;;15.90;88.30;;;;;;5118326;27;20550;-63
2022/05/08 13:14:39;;;;;;;9.95;2.10;;;16.00;87.30;;;;;;5114181;27;20677;-63
2022/05/08 13:17:06;;;;;;;15.90;2.28;;;15.90;85.70;;;;;;5117316;27;20039;-63
2022/05/08 13:19:35;;;;;;;13.60;2.17;;;15.80;84.90;;;;;;5113228;27;20453;-63
2022/05/08 13:22:03;;;;;;;8.95;1.70;;;15.70;85.20;;;;;;5102573;27;20092;-62